createdAt,value
2018-07-07T00:01:30.500Z,7.93
2018-07-07T00:04:04.473Z,7.30
2018-07-07T00:06:37.013Z,8.10
2018-07-07T00:09:09.832Z,7.20
2018-07-07T00:11:42.176Z,7.27
2018-07-07T00:14:15.608Z,7.40
2018-07-07T00:16:49.713Z,6.00
2018-07-07T00:19:22.188Z,6.77
2018-07-07T00:21:56.796Z,6.30
2018-07-07T00:24:32.477Z,7.60
2018-07-07T00:27:07.264Z,6.13
2018-07-07T00:29:40.226Z,5.70
2018-07-07T00:32:16.297Z,5.67
2018-07-07T00:34:48.785Z,5.10
2018-07-07T00:37:21.321Z,5.97
2018-07-07T00:39:54.096Z,5.05
2018-07-07T00:42:26.622Z,5.27
2018-07-07T00:45:03.349Z,4.83
2018-07-07T00:47:37.803Z,5.70
2018-07-07T00:50:13.467Z,4.70
2018-07-07T00:52:46.095Z,4.07
2018-07-07T00:55:18.832Z,4.00
2018-07-07T00:57:53.117Z,4.10
2018-07-07T01:00:51.940Z,3.50
2018-07-07T01:03:26.508Z,3.77
2018-07-07T01:06:02.750Z,3.80
2018-07-07T01:08:37.728Z,2.90
2018-07-07T01:11:11.466Z,3.00
2018-07-07T01:13:43.965Z,2.67
2018-07-07T01:16:17.769Z,3.23
2018-07-07T01:18:50.348Z,2.67
2018-07-07T01:21:23.521Z,3.10
2018-07-07T01:23:57.473Z,3.13
2018-07-07T01:26:31.245Z,2.57
2018-07-07T01:29:03.758Z,2.30
2018-07-07T01:31:43.829Z,2.30
2018-07-07T01:34:17.274Z,2.53
2018-07-07T01:36:50.794Z,2.20
2018-07-07T01:39:26.489Z,2.43
2018-07-07T01:42:07.373Z,2.67
2018-07-07T01:44:40.501Z,2.72
2018-07-07T01:47:13.928Z,2.50
2018-07-07T01:49:47.737Z,2.30
2018-07-07T01:52:23.193Z,2.80
2018-07-07T01:54:58.509Z,2.13
2018-07-07T01:57:31.825Z,2.20
2018-07-07T02:00:06.411Z,2.50
2018-07-07T02:02:40.708Z,2.20
2018-07-07T02:05:14.524Z,2.27
2018-07-07T02:07:47.880Z,1.90
2018-07-07T02:10:25.421Z,2.00
2018-07-07T02:12:59.077Z,2.00
2018-07-07T02:15:32.436Z,2.00
2018-07-07T02:18:06.460Z,1.80
2018-07-07T02:20:38.979Z,2.30
2018-07-07T02:23:11.621Z,1.90
2018-07-07T02:25:45.545Z,2.10
2018-07-07T02:28:18.012Z,1.90
2018-07-07T02:30:51.315Z,2.30
2018-07-07T02:33:27.013Z,2.30
2018-07-07T02:35:59.457Z,2.63
2018-07-07T02:38:32.174Z,2.00
2018-07-07T02:41:04.705Z,2.33
2018-07-07T02:43:37.525Z,1.90
2018-07-07T02:46:10.689Z,1.83
2018-07-07T02:48:44.232Z,2.00
2018-07-07T02:51:16.834Z,1.57
2018-07-07T02:53:49.445Z,2.28
2018-07-07T02:56:23.411Z,2.00
2018-07-07T02:58:55.976Z,2.40
2018-07-07T03:01:28.377Z,1.73
2018-07-07T03:04:01.210Z,2.10
2018-07-07T03:06:34.058Z,1.60
2018-07-07T03:09:06.649Z,1.80
2018-07-07T03:11:40.654Z,1.87
2018-07-07T03:14:13.206Z,1.60
2018-07-07T03:16:45.734Z,1.93
2018-07-07T03:19:19.898Z,1.85
2018-07-07T03:21:52.417Z,1.92
2018-07-07T03:24:24.838Z,2.10
2018-07-07T03:26:57.548Z,1.70
2018-07-07T03:29:30.285Z,2.00
2018-07-07T03:32:03.021Z,1.90
2018-07-07T03:34:35.973Z,2.10
2018-07-07T03:37:08.638Z,1.87
2018-07-07T03:39:41.409Z,1.60
2018-07-07T03:42:14.528Z,1.70
2018-07-07T03:44:46.893Z,2.03
2018-07-07T03:47:19.482Z,1.80
2018-07-07T03:49:52.732Z,1.83
2018-07-07T03:52:25.185Z,1.70
2018-07-07T03:54:57.608Z,1.90
2018-07-07T03:57:30.412Z,1.67
2018-07-07T04:00:05.321Z,1.83
2018-07-07T04:02:37.833Z,1.80
2018-07-07T04:05:10.568Z,2.00
2018-07-07T04:07:43.129Z,1.70
2018-07-07T04:10:15.462Z,1.80
2018-07-07T04:12:49.507Z,1.70
2018-07-07T04:15:22.109Z,1.70
2018-07-07T04:17:54.692Z,1.77
2018-07-07T04:20:28.708Z,1.87
2018-07-07T04:23:01.196Z,1.90
2018-07-07T04:25:33.654Z,1.50
2018-07-07T04:28:06.592Z,1.87
2018-07-07T04:30:38.992Z,1.93
2018-07-07T04:33:11.836Z,1.97
2018-07-07T04:35:45.133Z,1.67
2018-07-07T04:38:17.975Z,1.63
2018-07-07T04:40:50.560Z,1.97
2018-07-07T04:43:24.129Z,2.00
2018-07-07T04:45:56.547Z,2.10
2018-07-07T04:48:30.576Z,1.77
2018-07-07T04:51:03.785Z,2.00
2018-07-07T04:53:37.188Z,2.03
2018-07-07T04:56:09.834Z,1.63
2018-07-07T04:58:43.716Z,1.90
2018-07-07T05:01:17.076Z,1.70
2018-07-07T05:03:51.477Z,2.10
2018-07-07T05:06:24.441Z,1.70
2018-07-07T05:08:56.896Z,1.60
2018-07-07T05:11:29.484Z,1.63
2018-07-07T05:14:02.301Z,1.80
2018-07-07T05:16:35.393Z,2.00
2018-07-07T05:19:09.149Z,1.63
2018-07-07T05:21:43.077Z,2.10
2018-07-07T05:24:16.424Z,2.17
2018-07-07T05:26:49.723Z,1.43
2018-07-07T05:29:22.645Z,1.80
2018-07-07T05:31:55.565Z,1.63
2018-07-07T05:34:28.255Z,1.80
2018-07-07T05:37:01.516Z,1.73
2018-07-07T05:39:35.752Z,2.20
2018-07-07T05:42:09.484Z,1.90
2018-07-07T05:44:42.441Z,2.08
2018-07-07T05:47:14.901Z,1.83
2018-07-07T05:49:47.186Z,1.90
2018-07-07T05:52:20.881Z,1.70
2018-07-07T05:54:53.348Z,1.63
2018-07-07T05:57:26.187Z,1.60
2018-07-07T06:00:00.165Z,2.00
2018-07-07T06:02:34.696Z,1.70
2018-07-07T06:05:07.459Z,1.80
2018-07-07T06:07:41.325Z,2.27
2018-07-07T06:10:13.949Z,2.10
2018-07-07T06:12:48.244Z,2.40
2018-07-07T06:15:23.049Z,2.60
2018-07-07T06:17:56.109Z,2.50
2018-07-07T06:20:30.074Z,2.47
2018-07-07T06:23:03.332Z,2.33
2018-07-07T06:25:36.093Z,2.10
2018-07-07T06:28:09.425Z,1.83
2018-07-07T06:30:44.029Z,1.80
2018-07-07T06:33:17.186Z,1.50
2018-07-07T06:35:50.147Z,1.40
2018-07-07T06:38:24.002Z,1.20
2018-07-07T06:40:56.548Z,1.30
2018-07-07T06:43:31.547Z,1.33
2018-07-07T06:46:05.465Z,1.57
2018-07-07T06:48:39.345Z,1.40
2018-07-07T06:51:11.922Z,1.30
2018-07-07T06:53:44.743Z,1.50
2018-07-07T06:56:18.126Z,1.27
2018-07-07T06:58:51.489Z,1.30
2018-07-07T07:01:26.481Z,1.13
2018-07-07T07:04:00.092Z,1.93
2018-07-07T07:06:34.136Z,1.63
2018-07-07T07:09:09.246Z,1.40
2018-07-07T07:11:43.298Z,1.43
2018-07-07T07:14:16.678Z,1.67
2018-07-07T07:16:51.175Z,1.70
2018-07-07T07:19:23.746Z,1.20
2018-07-07T07:21:56.342Z,1.40
2018-07-07T07:24:30.866Z,1.20
2018-07-07T07:27:03.484Z,1.10
2018-07-07T07:29:36.134Z,1.27
2018-07-07T07:32:14.794Z,1.00
2018-07-07T07:34:54.515Z,1.40
2018-07-07T07:37:28.650Z,1.37
2018-07-07T07:40:02.649Z,1.23
2018-07-07T07:42:35.234Z,1.40
2018-07-07T07:45:09.223Z,1.33
2018-07-07T07:47:42.265Z,1.10
2018-07-07T07:50:16.710Z,1.30
2018-07-07T07:52:53.330Z,1.30
2018-07-07T07:55:26.168Z,1.40
2018-07-07T07:57:58.828Z,1.50
2018-07-07T08:00:35.030Z,1.27
2018-07-07T08:03:08.578Z,1.20
2018-07-07T08:05:44.110Z,1.17
2018-07-07T08:08:18.598Z,1.10
2018-07-07T08:10:51.439Z,1.33
2018-07-07T08:13:24.821Z,1.10
2018-07-07T08:15:57.384Z,0.90
2018-07-07T08:18:34.418Z,1.30
2018-07-07T08:21:07.874Z,1.33
2018-07-07T08:23:41.938Z,1.20
2018-07-07T08:26:16.115Z,1.10
2018-07-07T08:28:48.657Z,1.30
2018-07-07T08:31:29.146Z,1.13
2018-07-07T08:34:01.818Z,1.40
2018-07-07T08:36:36.076Z,1.35
2018-07-07T08:39:09.966Z,1.30
2018-07-07T08:41:42.744Z,1.30
2018-07-07T08:44:15.995Z,1.47
2018-07-07T08:46:49.246Z,1.27
2018-07-07T08:49:22.673Z,1.30
2018-07-07T08:51:55.254Z,1.43
2018-07-07T08:54:31.385Z,1.10
2018-07-07T08:57:05.003Z,1.60
2018-07-07T08:59:38.362Z,1.30
2018-07-07T09:02:11.542Z,1.40
2018-07-07T09:04:44.583Z,1.00
2018-07-07T09:07:19.206Z,1.53
2018-07-07T09:09:53.110Z,1.57
2018-07-07T09:12:27.031Z,1.43
2018-07-07T09:14:59.736Z,1.47
2018-07-07T09:17:34.331Z,1.30
2018-07-07T09:20:08.758Z,1.40
2018-07-07T09:22:42.610Z,1.50
2018-07-07T09:25:16.262Z,1.60
2018-07-07T09:27:48.721Z,1.60
2018-07-07T09:30:23.614Z,1.60
2018-07-07T09:32:58.324Z,1.33
2018-07-07T09:35:34.858Z,1.67
2018-07-07T09:38:09.299Z,1.35
2018-07-07T09:40:43.221Z,1.50
2018-07-07T09:43:26.006Z,1.90
2018-07-07T09:46:02.735Z,1.70
2018-07-07T09:48:42.829Z,1.43
2018-07-07T09:51:16.951Z,1.83
2018-07-07T09:54:23.557Z,1.63
2018-07-07T09:57:10.233Z,1.80
2018-07-07T09:59:46.317Z,1.70
2018-07-07T10:02:22.933Z,1.80
2018-07-07T10:04:56.762Z,1.70
2018-07-07T10:07:32.107Z,1.90
2018-07-07T10:10:07.372Z,1.90
2018-07-07T10:12:42.540Z,1.80
2018-07-07T10:15:18.546Z,1.67
2018-07-07T10:17:55.197Z,2.23
2018-07-07T10:20:29.224Z,1.93
2018-07-07T10:23:04.697Z,1.80
2018-07-07T10:25:47.717Z,1.60
2018-07-07T10:28:23.893Z,1.50
2018-07-07T10:31:03.942Z,1.70
2018-07-07T10:33:39.318Z,2.33
2018-07-07T10:36:15.572Z,1.97
2018-07-07T10:38:52.199Z,1.60
2018-07-07T10:41:32.777Z,1.40
2018-07-07T10:44:11.973Z,2.30
2018-07-07T10:46:48.426Z,1.83
2018-07-07T10:49:26.622Z,1.63
2018-07-07T10:52:02.481Z,3.07
2018-07-07T10:54:35.529Z,1.60
2018-07-07T10:57:11.317Z,1.40
2018-07-07T10:59:48.091Z,1.60
2018-07-07T11:02:21.607Z,1.60
2018-07-07T11:04:54.174Z,1.57
2018-07-07T11:07:27.763Z,1.60
2018-07-07T11:10:01.005Z,1.60
2018-07-07T11:12:33.565Z,2.00
2018-07-07T11:15:08.198Z,1.63
2018-07-07T11:17:41.508Z,1.70
2018-07-07T11:20:15.627Z,1.67
2018-07-07T11:22:48.485Z,1.70
2018-07-07T11:25:22.485Z,1.63
2018-07-07T11:27:56.332Z,1.70
2018-07-07T11:30:29.224Z,1.40
2018-07-07T11:33:02.624Z,1.60
2018-07-07T11:35:36.433Z,1.60
2018-07-07T11:38:10.737Z,1.70
2018-07-07T11:40:44.895Z,1.67
2018-07-07T11:43:22.928Z,1.95
2018-07-07T11:45:56.098Z,1.80
2018-07-07T11:48:31.203Z,1.90
2018-07-07T11:51:05.670Z,1.77
2018-07-07T11:53:39.689Z,1.73
2018-07-07T11:56:16.279Z,1.80
2018-07-07T11:58:50.558Z,1.57
2018-07-07T12:01:26.768Z,1.85
2018-07-07T12:03:59.297Z,1.93
2018-07-07T12:06:34.626Z,1.55
2018-07-07T12:09:09.142Z,1.80
2018-07-07T12:11:42.380Z,2.10
2018-07-07T12:14:16.846Z,1.70
2018-07-07T12:16:51.029Z,2.17
2018-07-07T12:19:25.345Z,1.70
2018-07-07T12:22:01.674Z,2.30
2018-07-07T12:24:37.678Z,1.80
2018-07-07T12:27:18.589Z,2.00
2018-07-07T12:29:53.703Z,2.00
2018-07-07T12:32:26.956Z,1.80
2018-07-07T12:34:59.786Z,2.10
2018-07-07T12:37:32.485Z,1.50
2018-07-07T12:40:06.229Z,1.80
2018-07-07T12:42:40.458Z,1.93
2018-07-07T12:45:19.085Z,1.90
2018-07-07T12:47:57.587Z,2.08
2018-07-07T12:50:33.001Z,2.13
2018-07-07T12:53:10.902Z,1.90
2018-07-07T12:55:45.694Z,2.00
2018-07-07T12:58:19.149Z,2.10
2018-07-07T13:00:51.718Z,1.87
2018-07-07T13:03:25.566Z,2.10
2018-07-07T13:05:59.601Z,2.50
2018-07-07T13:08:34.749Z,1.87
2018-07-07T13:11:07.561Z,1.80
2018-07-07T13:13:40.355Z,2.20
2018-07-07T13:16:19.769Z,2.00
2018-07-07T13:18:54.465Z,1.70
2018-07-07T13:21:29.786Z,1.57
2018-07-07T13:24:07.605Z,1.90
2018-07-07T13:26:42.845Z,1.95
2018-07-07T13:29:20.812Z,2.40
2018-07-07T13:31:53.593Z,1.70
2018-07-07T13:34:27.310Z,2.47
2018-07-07T13:37:01.109Z,1.70
2018-07-07T13:39:39.632Z,1.33
2018-07-07T13:42:16.300Z,1.40
2018-07-07T13:44:51.780Z,1.50
2018-07-07T13:47:24.944Z,1.50
2018-07-07T13:49:58.310Z,1.57
2018-07-07T13:52:33.190Z,1.37
2018-07-07T13:55:07.063Z,1.43
2018-07-07T13:57:41.758Z,1.80
2018-07-07T14:00:24.500Z,1.17
2018-07-07T14:03:09.348Z,1.47
2018-07-07T14:05:45.221Z,1.40
2018-07-07T14:08:46.177Z,1.50
2018-07-07T14:11:28.037Z,1.50
2018-07-07T14:14:01.448Z,1.30
2018-07-07T14:16:37.494Z,1.50
2018-07-07T14:19:12.137Z,1.30
2018-07-07T14:21:45.712Z,1.35
2018-07-07T14:24:19.477Z,1.57
2018-07-07T14:26:52.830Z,1.58
2018-07-07T14:29:26.345Z,1.33
2018-07-07T14:32:02.025Z,1.70
2018-07-07T14:34:43.940Z,1.30
2018-07-07T14:37:17.893Z,1.53
2018-07-07T14:39:56.676Z,1.40
2018-07-07T14:42:53.259Z,1.30
2018-07-07T14:45:28.792Z,1.57
2018-07-07T14:48:03.970Z,1.60
2018-07-07T14:50:36.587Z,1.60
2018-07-07T14:53:11.925Z,1.70
2018-07-07T14:55:45.917Z,1.40
2018-07-07T14:58:19.278Z,1.53
2018-07-07T15:00:52.740Z,1.20
2018-07-07T15:03:27.234Z,1.30
2018-07-07T15:06:08.537Z,1.40
2018-07-07T15:08:43.828Z,1.40
2018-07-07T15:11:19.118Z,1.43
2018-07-07T15:13:53.910Z,1.53
2018-07-07T15:16:31.758Z,1.20
2018-07-07T15:19:08.138Z,1.30
2018-07-07T15:21:42.205Z,1.40
2018-07-07T15:24:14.679Z,1.30
2018-07-07T15:26:49.571Z,1.60
2018-07-07T15:29:23.232Z,1.50
2018-07-07T15:31:57.767Z,1.37
2018-07-07T15:34:33.629Z,1.50
2018-07-07T15:37:09.342Z,1.37
2018-07-07T15:39:41.834Z,1.30
2018-07-07T15:42:14.675Z,2.10
2018-07-07T15:44:48.099Z,1.50
2018-07-07T15:47:21.530Z,1.20
2018-07-07T15:49:56.326Z,1.70
2018-07-07T15:52:28.906Z,1.60
2018-07-07T15:55:02.252Z,1.70
2018-07-07T15:57:35.514Z,1.47
2018-07-07T16:00:17.389Z,1.40
2018-07-07T16:02:53.594Z,1.33
2018-07-07T16:05:28.377Z,1.40
2018-07-07T16:08:03.597Z,1.67
2018-07-07T16:10:37.960Z,1.43
2018-07-07T16:13:15.910Z,1.70
2018-07-07T16:15:49.223Z,1.50
2018-07-07T16:18:22.669Z,1.90
2018-07-07T16:20:56.852Z,1.40
2018-07-07T16:23:34.817Z,1.80
2018-07-07T16:26:09.591Z,2.37
2018-07-07T16:28:44.859Z,1.50
2018-07-07T16:31:18.986Z,1.70
2018-07-07T16:33:53.726Z,1.73
2018-07-07T16:36:29.310Z,1.70
2018-07-07T16:39:05.199Z,1.90
2018-07-07T16:41:38.223Z,2.43
2018-07-07T16:44:18.709Z,1.83
2018-07-07T16:47:02.741Z,1.65
2018-07-07T16:49:35.957Z,1.70
2018-07-07T16:52:13.071Z,2.33
2018-07-07T16:54:49.584Z,2.30
2018-07-07T16:57:25.945Z,2.93
2018-07-07T17:00:01.405Z,5.57
2018-07-07T17:02:43.865Z,3.03
2018-07-07T17:05:20.361Z,3.23
2018-07-07T17:07:56.650Z,1.87
2018-07-07T17:10:29.475Z,2.07
2018-07-07T17:13:04.330Z,2.20
2018-07-07T17:15:38.035Z,1.63
2018-07-07T17:18:14.400Z,2.23
2018-07-07T17:20:47.820Z,1.63
2018-07-07T17:23:23.945Z,2.97
2018-07-07T17:26:01.377Z,2.00
2018-07-07T17:28:37.626Z,1.73
2018-07-07T17:31:13.182Z,1.50
2018-07-07T17:33:49.893Z,1.37
2018-07-07T17:36:23.770Z,1.50
2018-07-07T17:38:57.899Z,1.57
2018-07-07T17:41:36.112Z,1.60
2018-07-07T17:44:09.185Z,1.30
2018-07-07T17:46:43.000Z,1.27
2018-07-07T17:49:20.390Z,1.53
2018-07-07T17:51:53.997Z,1.50
2018-07-07T17:54:27.716Z,1.20
2018-07-07T17:57:04.818Z,1.43
2018-07-07T17:59:41.079Z,1.50
2018-07-07T18:02:21.673Z,1.60
2018-07-07T18:04:58.509Z,1.53
2018-07-07T18:07:31.074Z,2.03
2018-07-07T18:10:05.192Z,1.50
2018-07-07T18:12:47.260Z,1.70
2018-07-07T18:15:23.971Z,1.50
2018-07-07T18:17:57.810Z,1.60
2018-07-07T18:20:33.862Z,1.92
2018-07-07T18:23:09.081Z,1.50
2018-07-07T18:25:42.354Z,1.77
2018-07-07T18:28:20.272Z,1.77
2018-07-07T18:30:52.820Z,2.10
2018-07-07T18:33:27.812Z,1.93
2018-07-07T18:36:01.881Z,1.90
2018-07-07T18:38:40.389Z,1.90
2018-07-07T18:41:15.033Z,2.20
2018-07-07T18:43:48.624Z,2.00
2018-07-07T18:46:28.278Z,1.73
2018-07-07T18:49:01.385Z,2.10
2018-07-07T18:51:39.059Z,1.90
2018-07-07T18:54:14.738Z,1.63
2018-07-07T18:56:48.945Z,1.90
2018-07-07T18:59:25.948Z,1.90
2018-07-07T19:01:59.257Z,2.50
2018-07-07T19:04:39.476Z,2.17
2018-07-07T19:07:15.739Z,2.58
2018-07-07T19:09:50.478Z,2.28
2018-07-07T19:12:27.141Z,2.20
2018-07-07T19:15:05.590Z,2.33
2018-07-07T19:17:40.769Z,2.00
2018-07-07T19:20:33.004Z,1.60
2018-07-07T19:23:12.025Z,1.87
2018-07-07T19:25:51.576Z,1.80
2018-07-07T19:28:27.920Z,1.57
2018-07-07T19:31:05.158Z,2.03
2018-07-07T19:33:45.594Z,1.80
2018-07-07T19:36:27.702Z,1.40
2018-07-07T19:39:04.253Z,1.90
2018-07-07T19:41:39.373Z,1.80
2018-07-07T19:44:15.480Z,1.60
2018-07-07T19:46:50.576Z,1.90
2018-07-07T19:49:25.022Z,2.17
2018-07-07T19:52:02.916Z,1.90
2018-07-07T19:54:54.741Z,2.20
2018-07-07T19:57:31.830Z,1.80
2018-07-07T20:00:12.223Z,1.50
2018-07-07T20:02:47.011Z,1.33
2018-07-07T20:05:20.906Z,1.60
2018-07-07T20:07:54.629Z,1.37
2018-07-07T20:10:30.207Z,1.33
2018-07-07T20:13:05.255Z,1.40
2018-07-07T20:16:13.412Z,1.70
2018-07-07T20:19:21.837Z,2.00
2018-07-07T20:22:02.950Z,1.73
2018-07-07T20:24:39.513Z,1.65
2018-07-07T20:27:21.551Z,2.30
2018-07-07T20:29:57.529Z,2.00
2018-07-07T20:32:38.738Z,2.00
2018-07-07T20:35:17.881Z,2.30
2018-07-07T20:37:55.015Z,2.03
2018-07-07T20:40:29.229Z,2.10
2018-07-07T20:43:02.738Z,1.80
2018-07-07T20:45:39.851Z,1.93
2018-07-07T20:48:14.951Z,2.10
2018-07-07T20:50:49.146Z,2.60
2018-07-07T20:53:24.325Z,2.70
2018-07-07T20:55:57.421Z,2.37
2018-07-07T20:58:33.799Z,1.50
2018-07-07T21:01:09.650Z,2.03
2018-07-07T21:04:03.596Z,1.63
2018-07-07T21:06:38.676Z,1.27
2018-07-07T21:09:19.445Z,1.60
2018-07-07T21:11:56.621Z,1.93
2018-07-07T21:14:37.569Z,1.60
2018-07-07T21:17:16.338Z,1.97
2018-07-07T21:19:49.845Z,1.90
2018-07-07T21:22:29.084Z,1.83
2018-07-07T21:25:05.769Z,1.70
2018-07-07T21:27:42.168Z,1.50
2018-07-07T21:30:18.396Z,1.60
2018-07-07T21:32:55.613Z,1.67
2018-07-07T21:35:31.685Z,1.70
2018-07-07T21:38:27.286Z,1.50
2018-07-07T21:41:02.587Z,1.63
2018-07-07T21:43:38.157Z,2.07
2018-07-07T21:46:16.478Z,1.97
2018-07-07T21:48:51.168Z,2.20
2018-07-07T21:51:37.095Z,1.80
2018-07-07T21:54:14.081Z,1.60
2018-07-07T21:56:55.582Z,1.67
2018-07-07T21:59:28.854Z,1.77
2018-07-07T22:02:11.428Z,1.50
2018-07-07T22:04:56.657Z,1.60
2018-07-07T22:07:37.692Z,1.57
2018-07-07T22:10:21.549Z,1.50
2018-07-07T22:12:56.468Z,1.40
2018-07-07T22:15:34.716Z,1.70
2018-07-07T22:18:08.552Z,1.60
2018-07-07T22:22:08.278Z,2.10
2018-07-07T22:24:41.893Z,2.40
2018-07-07T22:27:15.842Z,2.00
2018-07-07T22:29:54.383Z,1.77
2018-07-07T22:32:37.873Z,1.80
2018-07-07T22:35:16.650Z,1.80
2018-07-07T22:37:50.706Z,2.00
2018-07-07T22:40:25.057Z,1.80
2018-07-07T22:42:59.443Z,1.70
2018-07-07T22:45:34.144Z,2.00
2018-07-07T22:48:09.853Z,1.97
2018-07-07T22:50:43.720Z,1.80
2018-07-07T22:53:17.805Z,1.80
2018-07-07T22:55:52.461Z,1.90
2018-07-07T22:58:25.936Z,2.00
2018-07-07T23:01:01.218Z,2.10
2018-07-07T23:03:34.752Z,1.83
2018-07-07T23:06:07.562Z,1.90
2018-07-07T23:08:40.826Z,1.80
2018-07-07T23:11:16.115Z,1.77
2018-07-07T23:13:49.097Z,1.77
2018-07-07T23:16:26.571Z,2.00
2018-07-07T23:19:06.707Z,2.17
2018-07-07T23:21:41.645Z,1.97
2018-07-07T23:24:15.187Z,1.90
2018-07-07T23:26:49.538Z,1.92
2018-07-07T23:29:22.976Z,2.10
2018-07-07T23:32:02.604Z,2.17
2018-07-07T23:34:38.781Z,1.70
2018-07-07T23:37:14.174Z,2.30
2018-07-07T23:39:51.821Z,1.63
2018-07-07T23:42:26.121Z,1.70
2018-07-07T23:45:03.686Z,2.20
2018-07-07T23:47:36.971Z,2.10
2018-07-07T23:50:13.236Z,2.00
2018-07-07T23:52:47.191Z,2.00
2018-07-07T23:55:20.623Z,2.23
2018-07-07T23:57:54.521Z,1.70
